createdAt,value
2018-03-03T00:00:29.416Z,36.75
2018-03-03T00:03:32.719Z,19.00
2018-03-03T00:06:36.015Z,21.98
2018-03-03T00:09:39.306Z,30.00
2018-03-03T00:12:43.336Z,23.20
2018-03-03T00:15:46.729Z,22.50
2018-03-03T00:18:50.092Z,25.42
2018-03-03T00:21:53.850Z,26.80
2018-03-03T00:24:57.182Z,36.55
2018-03-03T00:28:00.787Z,23.42
2018-03-03T00:31:04.076Z,17.87
2018-03-03T00:34:07.392Z,24.52
2018-03-03T00:37:10.765Z,4.28
2018-03-03T00:40:14.829Z,28.90
2018-03-03T00:43:18.421Z,10.75
2018-03-03T00:46:21.668Z,13.98
2018-03-03T00:49:25.769Z,20.90
2018-03-03T00:52:29.912Z,26.45
2018-03-03T00:55:33.237Z,21.83
2018-03-03T00:58:36.502Z,7.87
2018-03-03T01:01:39.825Z,16.52
2018-03-03T01:04:43.920Z,30.65
2018-03-03T01:07:47.304Z,18.80
2018-03-03T01:10:51.466Z,15.05
2018-03-03T01:13:54.784Z,24.95
2018-03-03T01:16:58.091Z,11.77
2018-03-03T01:20:01.442Z,17.23
2018-03-03T01:23:04.709Z,17.83
2018-03-03T01:26:08.016Z,28.48
2018-03-03T01:29:11.300Z,13.77
2018-03-03T01:32:15.386Z,13.62
2018-03-03T01:35:18.703Z,21.70
2018-03-03T01:38:22.065Z,19.60
2018-03-03T01:41:25.497Z,26.48
2018-03-03T01:44:29.599Z,22.52
2018-03-03T01:47:33.666Z,25.83
2018-03-03T01:50:37.002Z,9.25
2018-03-03T01:53:40.748Z,11.88
2018-03-03T01:56:44.004Z,27.25
2018-03-03T01:59:47.277Z,13.70
2018-03-03T02:02:50.557Z,18.05
2018-03-03T02:05:54.604Z,24.42
2018-03-03T02:08:57.952Z,26.85
2018-03-03T02:12:01.272Z,19.80
2018-03-03T02:15:05.311Z,24.80
2018-03-03T02:18:08.693Z,20.42
2018-03-03T02:21:12.008Z,16.70
2018-03-03T02:24:15.331Z,14.80
2018-03-03T02:27:18.658Z,22.17
2018-03-03T02:30:22.770Z,27.08
2018-03-03T02:33:26.804Z,15.82
2018-03-03T02:36:30.879Z,13.73
2018-03-03T02:39:34.323Z,6.37
2018-03-03T02:42:39.088Z,5.40
2018-03-03T02:45:42.635Z,19.20
2018-03-03T02:48:45.904Z,18.08
2018-03-03T02:51:49.240Z,18.92
2018-03-03T02:54:52.533Z,15.82
2018-03-03T02:57:56.584Z,24.92
2018-03-03T03:00:59.920Z,16.55
2018-03-03T03:04:03.200Z,7.10
2018-03-03T03:07:07.275Z,21.77
2018-03-03T03:10:10.589Z,19.37
2018-03-03T03:13:13.899Z,16.50
2018-03-03T03:16:17.226Z,20.15
2018-03-03T03:19:20.836Z,27.08
2018-03-03T03:22:24.120Z,10.43
2018-03-03T03:25:27.463Z,16.17
2018-03-03T03:28:30.746Z,17.67
2018-03-03T03:31:34.804Z,15.05
2018-03-03T03:34:38.058Z,22.35
2018-03-03T03:37:41.354Z,21.37
2018-03-03T03:40:44.766Z,15.15
2018-03-03T03:43:48.069Z,25.00
2018-03-03T03:46:51.351Z,17.65
2018-03-03T03:49:54.662Z,10.25
2018-03-03T03:52:57.929Z,10.80
2018-03-03T03:56:01.522Z,21.80
2018-03-03T03:59:04.994Z,12.85
2018-03-03T04:02:08.310Z,7.82
2018-03-03T04:05:12.432Z,27.40
2018-03-03T04:08:15.734Z,23.83
2018-03-03T04:11:18.999Z,21.42
2018-03-03T04:14:22.274Z,18.15
2018-03-03T04:17:25.613Z,11.77
2018-03-03T04:20:28.895Z,11.10
2018-03-03T04:23:32.178Z,16.87
2018-03-03T04:26:35.633Z,11.18
2018-03-03T04:29:38.903Z,20.15
2018-03-03T04:32:42.251Z,14.60
2018-03-03T04:35:45.833Z,17.33
2018-03-03T04:38:49.189Z,9.32
2018-03-03T04:41:52.451Z,16.33
2018-03-03T04:44:55.683Z,15.48
2018-03-03T04:47:58.937Z,16.30
2018-03-03T04:51:02.297Z,23.58
2018-03-03T04:54:05.668Z,10.32
2018-03-03T04:57:08.903Z,16.05
2018-03-03T05:00:18.738Z,16.05
2018-03-03T05:03:38.519Z,6.82
2018-03-03T05:10:28.109Z,11.48
2018-03-03T05:13:35.005Z,14.38
2018-03-03T05:16:52.174Z,18.35
2018-03-03T05:20:00.967Z,17.87
2018-03-03T05:23:10.594Z,21.65
2018-03-03T05:26:20.340Z,21.02
2018-03-03T05:29:29.267Z,15.02
2018-03-03T05:32:36.561Z,24.33
2018-03-03T05:39:26.554Z,20.85
2018-03-03T05:42:48.757Z,25.77
2018-03-03T05:46:09.792Z,21.10
2018-03-03T05:49:18.737Z,27.98
2018-03-03T05:52:27.778Z,24.25
2018-03-03T05:55:51.949Z,23.75
2018-03-03T06:02:37.942Z,24.83
2018-03-03T06:05:58.108Z,26.77
2018-03-03T06:09:02.230Z,21.67
2018-03-03T06:12:05.630Z,27.08
2018-03-03T06:15:08.977Z,17.52
2018-03-03T06:18:12.294Z,11.77
2018-03-03T06:21:15.650Z,25.15
2018-03-03T06:24:19.042Z,14.90
2018-03-03T06:27:22.711Z,9.52
2018-03-03T06:30:25.966Z,10.55
2018-03-03T06:33:29.552Z,7.70
2018-03-03T06:36:32.815Z,20.98
2018-03-03T06:39:36.114Z,17.58
2018-03-03T06:42:39.425Z,13.85
2018-03-03T06:45:42.961Z,25.08
2018-03-03T06:48:46.275Z,16.15
2018-03-03T06:51:49.992Z,8.43
2018-03-03T06:54:53.287Z,16.12
2018-03-03T06:57:56.606Z,9.55
2018-03-03T07:00:59.950Z,10.13
2018-03-03T07:04:03.213Z,13.90
2018-03-03T07:07:06.611Z,25.50
2018-03-03T07:10:10.642Z,5.68
2018-03-03T07:13:13.950Z,13.75
2018-03-03T07:16:17.389Z,15.05
2018-03-03T07:19:21.467Z,21.87
2018-03-03T07:22:24.898Z,26.25
2018-03-03T07:25:28.153Z,21.20
2018-03-03T07:28:31.642Z,19.35
2018-03-03T07:31:35.939Z,13.57
2018-03-03T07:34:40.110Z,13.18
2018-03-03T07:37:43.503Z,15.02
2018-03-03T07:40:46.792Z,26.75
2018-03-03T07:43:50.086Z,15.10
2018-03-03T07:46:53.703Z,13.62
2018-03-03T07:49:57.231Z,17.35
2018-03-03T07:53:00.747Z,12.05
2018-03-03T07:56:04.881Z,13.95
2018-03-03T07:59:08.326Z,10.70
2018-03-03T08:02:12.552Z,3.65
2018-03-03T08:05:16.086Z,5.50
2018-03-03T08:08:19.496Z,22.75
2018-03-03T08:11:23.475Z,17.70
2018-03-03T08:14:26.920Z,5.90
2018-03-03T08:17:30.565Z,6.28
2018-03-03T08:20:34.092Z,10.32
2018-03-03T08:23:37.499Z,24.17
2018-03-03T08:26:41.016Z,14.75
2018-03-03T08:29:44.434Z,6.05
2018-03-03T08:32:47.878Z,14.82
2018-03-03T08:35:52.094Z,10.40
2018-03-03T08:38:55.529Z,18.15
2018-03-03T08:41:58.992Z,13.35
2018-03-03T08:45:02.497Z,27.30
2018-03-03T08:48:06.686Z,30.05
2018-03-03T08:51:10.087Z,9.95
2018-03-03T08:54:13.509Z,9.85
2018-03-03T08:57:17.792Z,26.75
2018-03-03T09:00:21.142Z,26.10
2018-03-03T09:03:24.486Z,9.48
2018-03-03T09:06:27.964Z,18.77
2018-03-03T09:09:31.435Z,36.30
2018-03-03T09:12:34.874Z,6.35
2018-03-03T09:15:38.258Z,9.20
2018-03-03T09:18:42.642Z,24.08
2018-03-03T09:21:46.206Z,33.63
2018-03-03T09:24:49.565Z,37.90
2018-03-03T09:27:52.859Z,24.08
2018-03-03T09:30:56.209Z,28.02
2018-03-03T09:33:59.694Z,38.80
2018-03-03T09:37:02.999Z,16.12
2018-03-03T09:40:06.641Z,34.45
2018-03-03T09:43:10.814Z,11.63
2018-03-03T09:46:14.216Z,40.50
2018-03-03T09:49:18.473Z,21.73
2018-03-03T09:52:21.910Z,6.60
2018-03-03T09:55:26.047Z,11.73
2018-03-03T09:58:30.137Z,8.02
2018-03-03T10:01:34.090Z,18.92
2018-03-03T10:04:38.336Z,45.75
2018-03-03T10:07:42.071Z,22.50
2018-03-03T10:10:46.318Z,7.95
2018-03-03T10:13:49.740Z,22.08
2018-03-03T10:16:53.150Z,33.72
2018-03-03T10:19:56.637Z,29.60
2018-03-03T10:23:00.114Z,7.30
2018-03-03T10:26:03.570Z,30.73
2018-03-03T10:29:07.003Z,9.30
2018-03-03T10:32:11.134Z,8.85
2018-03-03T10:35:14.657Z,20.12
2018-03-03T10:38:18.038Z,28.87
2018-03-03T10:41:21.460Z,54.22
2018-03-03T10:44:24.944Z,12.37
2018-03-03T10:47:28.693Z,17.92
2018-03-03T10:50:33.012Z,47.05
2018-03-03T10:53:36.409Z,52.40
2018-03-03T10:56:39.808Z,41.17
2018-03-03T10:59:43.340Z,46.80
2018-03-03T11:02:46.736Z,12.10
2018-03-03T11:05:50.843Z,38.75
2018-03-03T11:08:55.120Z,35.72
2018-03-03T11:11:58.524Z,39.40
2018-03-03T11:15:01.879Z,46.53
2018-03-03T11:18:05.271Z,48.90
2018-03-03T11:21:08.726Z,40.60
2018-03-03T11:24:12.177Z,51.17
2018-03-03T11:27:17.971Z,38.38
2018-03-03T11:30:23.061Z,46.63
2018-03-03T11:33:28.332Z,44.05
2018-03-03T11:36:32.919Z,48.78
2018-03-03T11:39:36.426Z,28.70
2018-03-03T11:42:40.751Z,27.62
2018-03-03T11:45:44.326Z,33.88
2018-03-03T11:48:47.807Z,46.15
2018-03-03T11:51:51.280Z,40.80
2018-03-03T11:54:54.685Z,16.87
2018-03-03T11:57:58.162Z,17.08
2018-03-03T12:01:01.669Z,17.52
2018-03-03T12:04:06.584Z,47.72
2018-03-03T12:07:12.510Z,40.12
2018-03-03T12:10:16.670Z,12.85
2018-03-03T12:13:22.846Z,23.58
2018-03-03T12:16:27.775Z,35.97
2018-03-03T12:19:34.289Z,42.30
2018-03-03T12:22:38.535Z,26.10
2018-03-03T12:25:42.478Z,18.52
2018-03-03T12:28:45.976Z,25.83
2018-03-03T12:31:50.548Z,52.38
2018-03-03T12:34:55.867Z,24.40
2018-03-03T12:37:59.350Z,36.50
2018-03-03T12:41:03.570Z,17.48
2018-03-03T12:44:07.841Z,31.80
2018-03-03T12:47:11.342Z,39.53
2018-03-03T12:50:15.595Z,49.35
2018-03-03T12:53:23.919Z,47.13
2018-03-03T12:56:28.833Z,47.58
2018-03-03T12:59:32.292Z,48.70
2018-03-03T13:02:35.798Z,18.92
2018-03-03T13:05:39.259Z,33.80
2018-03-03T13:08:42.814Z,45.40
2018-03-03T13:11:46.257Z,40.15
2018-03-03T13:14:49.744Z,48.47
2018-03-03T13:17:53.294Z,46.08
2018-03-03T13:20:57.615Z,45.33
2018-03-03T13:24:01.171Z,42.65
2018-03-03T13:27:05.447Z,30.60
2018-03-03T13:30:09.763Z,46.58
2018-03-03T13:33:13.235Z,51.42
2018-03-03T13:36:17.444Z,50.83
2018-03-03T13:39:20.987Z,41.83
2018-03-03T13:42:24.481Z,48.60
2018-03-03T13:45:28.011Z,47.38
2018-03-03T13:48:31.391Z,41.50
2018-03-03T13:51:34.846Z,48.33
2018-03-03T13:54:38.290Z,43.92
2018-03-03T13:57:41.784Z,43.80
2018-03-03T14:00:45.184Z,41.15
2018-03-03T14:03:48.670Z,43.85
2018-03-03T14:06:52.156Z,34.50
2018-03-03T14:09:55.520Z,46.25
2018-03-03T14:12:59.758Z,32.17
2018-03-03T14:16:03.878Z,36.97
2018-03-03T14:19:07.290Z,56.13
2018-03-03T14:22:10.745Z,43.85
2018-03-03T14:25:14.180Z,48.05
2018-03-03T14:28:18.442Z,20.00
2018-03-03T14:31:21.853Z,38.35
2018-03-03T14:34:28.225Z,39.20
2018-03-03T14:37:31.630Z,45.63
2018-03-03T14:40:34.966Z,49.78
2018-03-03T14:43:38.264Z,29.27
2018-03-03T14:46:42.598Z,53.38
2018-03-03T14:49:45.968Z,45.95
2018-03-03T14:52:50.295Z,35.25
2018-03-03T14:55:53.603Z,28.45
2018-03-03T14:58:57.715Z,45.33
2018-03-03T15:02:01.897Z,54.75
2018-03-03T15:05:05.272Z,39.40
2018-03-03T15:08:08.609Z,56.50
2018-03-03T15:11:12.009Z,54.40
2018-03-03T15:14:15.359Z,42.03
2018-03-03T15:17:18.843Z,53.15
2018-03-03T15:20:22.338Z,47.47
2018-03-03T15:23:25.705Z,47.38
2018-03-03T15:26:30.018Z,48.70
2018-03-03T15:29:33.437Z,52.03
2018-03-03T15:32:36.851Z,48.22
2018-03-03T15:35:40.437Z,47.47
2018-03-03T15:38:43.850Z,44.97
2018-03-03T15:41:47.207Z,57.60
2018-03-03T15:44:50.571Z,47.75
2018-03-03T15:47:54.016Z,48.75
2018-03-03T15:50:57.299Z,53.60
2018-03-03T15:54:00.636Z,54.53
2018-03-03T15:57:04.029Z,40.22
2018-03-03T16:00:07.413Z,38.97
2018-03-03T16:03:10.830Z,38.78
2018-03-03T16:06:14.212Z,47.20
2018-03-03T16:09:17.580Z,39.78
2018-03-03T16:12:21.026Z,46.55
2018-03-03T16:15:24.386Z,39.80
2018-03-03T16:18:27.756Z,56.13
2018-03-03T16:21:31.216Z,54.97
2018-03-03T16:24:34.591Z,49.22
2018-03-03T16:27:37.933Z,49.20
2018-03-03T16:30:42.133Z,25.58
2018-03-03T16:33:47.058Z,44.30
2018-03-03T16:36:50.405Z,30.37
2018-03-03T16:39:54.498Z,22.30
2018-03-03T16:42:58.619Z,63.55
2018-03-03T16:46:02.041Z,40.45
2018-03-03T16:49:05.433Z,54.00
2018-03-03T16:52:08.736Z,45.50
2018-03-03T16:55:12.831Z,44.72
2018-03-03T16:58:16.988Z,41.45
2018-03-03T17:01:21.261Z,39.78
2018-03-03T17:04:25.126Z,38.33
2018-03-03T17:07:28.609Z,42.08
2018-03-03T17:10:32.659Z,48.40
2018-03-03T17:13:36.021Z,54.70
2018-03-03T17:16:39.378Z,51.20
2018-03-03T17:19:43.600Z,63.70
2018-03-03T17:22:46.935Z,31.92
2018-03-03T17:25:50.331Z,44.10
2018-03-03T17:28:53.696Z,35.55
2018-03-03T17:31:57.045Z,38.40
2018-03-03T17:35:00.397Z,28.90
2018-03-03T17:38:04.543Z,36.00
2018-03-03T17:41:08.929Z,35.67
2018-03-03T17:44:12.308Z,45.95
2018-03-03T17:47:15.699Z,54.53
2018-03-03T17:50:19.097Z,71.72
2018-03-03T17:53:22.538Z,56.33
2018-03-03T17:56:26.015Z,44.13
2018-03-03T17:59:29.509Z,52.85
2018-03-03T18:02:33.092Z,41.95
2018-03-03T18:05:36.494Z,48.10
2018-03-03T18:08:39.859Z,43.28
2018-03-03T18:11:58.998Z,37.95
2018-03-03T18:15:03.142Z,54.33
2018-03-03T18:18:06.479Z,39.85
2018-03-03T18:21:09.831Z,32.95
2018-03-03T18:24:38.933Z,32.72
2018-03-03T18:27:43.282Z,47.10
2018-03-03T18:30:47.689Z,44.58
2018-03-03T18:33:51.088Z,44.85
2018-03-03T18:36:54.563Z,40.55
2018-03-03T18:39:57.913Z,36.03
2018-03-03T18:43:01.386Z,31.05
2018-03-03T18:46:04.837Z,33.33
2018-03-03T18:49:08.186Z,40.05
2018-03-03T18:52:11.606Z,45.83
2018-03-03T18:55:15.012Z,35.05
2018-03-03T18:58:18.382Z,31.92
2018-03-03T19:01:21.823Z,32.05
2018-03-03T19:04:25.157Z,33.95
2018-03-03T19:07:29.049Z,29.95
2018-03-03T19:10:33.193Z,30.23
2018-03-03T19:13:37.658Z,34.13
2018-03-03T19:16:41.053Z,45.88
2018-03-03T19:19:44.374Z,36.63
2018-03-03T19:22:47.886Z,50.33
2018-03-03T19:25:51.237Z,12.35
2018-03-03T19:28:54.660Z,30.33
2018-03-03T19:31:57.957Z,44.60
2018-03-03T19:35:01.270Z,31.92
2018-03-03T19:38:04.574Z,32.17
2018-03-03T19:41:07.902Z,33.60
2018-03-03T19:44:11.258Z,39.03
2018-03-03T19:47:14.605Z,32.55
2018-03-03T19:50:17.854Z,29.25
2018-03-03T19:53:21.207Z,36.40
2018-03-03T19:56:25.272Z,25.67
2018-03-03T19:59:28.661Z,55.00
2018-03-03T20:02:32.253Z,31.62
2018-03-03T20:05:35.555Z,19.27
2018-03-03T20:08:38.921Z,36.70
2018-03-03T20:11:42.546Z,23.85
2018-03-03T20:14:45.989Z,27.02
2018-03-03T20:17:49.537Z,20.58
2018-03-03T20:20:53.266Z,48.40
2018-03-03T20:23:57.012Z,31.23
2018-03-03T20:27:00.446Z,27.98
2018-03-03T20:30:04.090Z,31.50
2018-03-03T20:33:07.521Z,41.72
2018-03-03T20:36:10.840Z,52.75
2018-03-03T20:39:14.149Z,25.15
2018-03-03T20:42:17.518Z,26.45
2018-03-03T20:45:21.615Z,29.00
2018-03-03T20:48:24.921Z,21.92
2018-03-03T20:51:29.020Z,50.97
2018-03-03T20:54:32.353Z,31.90
2018-03-03T20:57:36.558Z,22.37
2018-03-03T21:00:40.102Z,28.45
2018-03-03T21:03:43.874Z,12.43
2018-03-03T21:06:48.069Z,26.37
2018-03-03T21:09:52.428Z,26.90
2018-03-03T21:12:55.858Z,37.10
2018-03-03T21:15:59.367Z,39.78
2018-03-03T21:19:03.522Z,48.72
2018-03-03T21:22:06.815Z,47.72
2018-03-03T21:25:10.874Z,36.75
2018-03-03T21:28:14.178Z,39.83
2018-03-03T21:31:17.970Z,40.67
2018-03-03T21:34:21.295Z,44.03
2018-03-03T21:37:24.663Z,48.42
2018-03-03T21:40:28.727Z,39.47
2018-03-03T21:43:32.031Z,48.30
2018-03-03T21:46:35.680Z,90.00
2018-03-03T21:49:39.080Z,38.08
2018-03-03T21:52:42.581Z,61.65
2018-03-03T21:55:45.887Z,34.05
2018-03-03T21:58:49.228Z,36.67
2018-03-03T22:01:53.350Z,49.22
2018-03-03T22:04:56.740Z,32.47
2018-03-03T22:08:00.993Z,37.40
2018-03-03T22:11:04.385Z,43.15
2018-03-03T22:14:08.462Z,31.48
2018-03-03T22:17:11.772Z,33.47
2018-03-03T22:20:15.103Z,39.70
2018-03-03T22:23:18.423Z,35.75
2018-03-03T22:26:21.782Z,50.03
2018-03-03T22:29:25.882Z,43.78
2018-03-03T22:32:29.446Z,34.85
2018-03-03T22:35:32.955Z,38.47
2018-03-03T22:38:36.309Z,45.28
2018-03-03T22:41:39.709Z,45.12
2018-03-03T22:44:43.083Z,33.20
2018-03-03T22:47:46.387Z,45.25
2018-03-03T22:50:49.762Z,46.45
2018-03-03T22:53:53.854Z,40.30
2018-03-03T22:56:57.145Z,54.80
2018-03-03T23:00:00.716Z,63.20
2018-03-03T23:03:05.864Z,44.08
2018-03-03T23:06:09.445Z,49.92
2018-03-03T23:09:12.834Z,46.17
2018-03-03T23:12:16.169Z,33.13
2018-03-03T23:15:19.588Z,36.30
2018-03-03T23:18:22.963Z,34.55
2018-03-03T23:21:27.172Z,39.85
2018-03-03T23:24:30.573Z,33.67
2018-03-03T23:27:34.769Z,48.33
2018-03-03T23:30:38.180Z,44.35
2018-03-03T23:33:42.334Z,29.80
2018-03-03T23:36:45.632Z,27.45
2018-03-03T23:39:48.949Z,23.52
2018-03-03T23:42:52.260Z,32.03
2018-03-03T23:45:55.526Z,34.85
2018-03-03T23:48:58.838Z,30.92
2018-03-03T23:52:02.127Z,36.65
2018-03-03T23:55:05.464Z,39.85
2018-03-03T23:58:08.686Z,35.03
